createdAt,value
2022-10-07T00:00:53.097Z,89.20
2022-10-07T00:03:21.859Z,88.41
2022-10-07T00:06:01.465Z,88.55
2022-10-07T00:08:30.016Z,88.86
2022-10-07T00:10:58.059Z,88.43
2022-10-07T00:13:26.095Z,88.65
2022-10-07T00:15:54.043Z,88.79
2022-10-07T00:18:21.964Z,89.14
2022-10-07T00:20:50.051Z,88.99
2022-10-07T00:23:19.337Z,88.40
2022-10-07T00:25:47.456Z,88.73
2022-10-07T00:28:15.497Z,88.52
2022-10-07T00:30:43.662Z,89.10
2022-10-07T00:33:11.657Z,88.79
2022-10-07T00:35:39.612Z,89.42
2022-10-07T00:38:07.454Z,89.51
2022-10-07T00:40:36.547Z,90.02
2022-10-07T00:43:19.298Z,89.97
2022-10-07T00:45:47.544Z,89.76
2022-10-07T00:48:16.451Z,89.81
2022-10-07T00:50:44.601Z,89.85
2022-10-07T00:53:12.602Z,89.80
2022-10-07T00:55:43.387Z,89.79
2022-10-07T00:58:11.836Z,89.62
2022-10-07T01:00:40.147Z,89.44
2022-10-07T01:03:08.013Z,89.07
2022-10-07T01:05:35.840Z,90.08
2022-10-07T01:08:03.610Z,89.70
2022-10-07T01:10:34.779Z,90.21
2022-10-07T01:13:08.556Z,89.98
2022-10-07T01:15:39.332Z,90.54
2022-10-07T01:18:10.904Z,90.55
2022-10-07T01:20:45.103Z,90.19
2022-10-07T01:23:27.016Z,90.87
2022-10-07T01:26:04.124Z,90.85
2022-10-07T01:28:37.674Z,90.24
2022-10-07T01:31:07.536Z,90.91
2022-10-07T01:33:36.040Z,90.86
2022-10-07T01:36:05.683Z,90.71
2022-10-07T01:38:34.662Z,90.39
2022-10-07T01:41:04.571Z,90.33
2022-10-07T01:43:35.201Z,89.98
2022-10-07T01:46:03.373Z,90.07
2022-10-07T01:48:32.721Z,90.06
2022-10-07T01:51:02.149Z,90.25
2022-10-07T01:53:36.124Z,90.23
2022-10-07T01:56:13.010Z,89.90
2022-10-07T01:58:50.958Z,90.13
2022-10-07T02:01:22.788Z,89.11
2022-10-07T02:03:57.903Z,89.12
2022-10-07T02:06:31.191Z,90.02
2022-10-07T02:09:04.180Z,90.46
2022-10-07T02:11:33.767Z,90.65
2022-10-07T02:14:09.187Z,90.54
2022-10-07T02:16:41.477Z,91.00
2022-10-07T02:19:12.678Z,91.24
2022-10-07T02:21:41.799Z,91.28
2022-10-07T02:24:11.609Z,91.19
2022-10-07T02:26:41.180Z,91.40
2022-10-07T02:29:11.517Z,91.20
2022-10-07T02:31:40.156Z,90.87
2022-10-07T02:34:09.659Z,90.79
2022-10-07T02:36:41.177Z,91.00
2022-10-07T02:39:09.147Z,91.13
2022-10-07T02:41:41.800Z,91.28
2022-10-07T02:44:15.520Z,91.35
2022-10-07T02:46:46.187Z,91.42
2022-10-07T02:49:18.175Z,91.71
2022-10-07T02:51:48.178Z,91.75
2022-10-07T02:54:18.937Z,91.91
2022-10-07T02:56:48.132Z,91.60
2022-10-07T02:59:18.900Z,91.71
2022-10-07T03:01:48.367Z,91.84
2022-10-07T03:04:16.175Z,91.94
2022-10-07T03:06:43.936Z,91.75
2022-10-07T03:09:12.300Z,91.39
2022-10-07T03:11:40.378Z,91.60
2022-10-07T03:14:08.135Z,91.23
2022-10-07T03:16:37.276Z,91.73
2022-10-07T03:19:05.201Z,92.10
2022-10-07T03:21:33.933Z,91.83
2022-10-07T03:24:04.735Z,91.68
2022-10-07T03:26:33.038Z,91.21
2022-10-07T03:29:01.246Z,90.95
2022-10-07T03:31:29.257Z,91.26
2022-10-07T03:33:59.565Z,90.80
2022-10-07T03:36:27.346Z,90.45
2022-10-07T03:38:55.706Z,90.37
2022-10-07T03:41:24.285Z,89.59
2022-10-07T03:43:52.061Z,89.02
2022-10-07T03:46:20.288Z,89.32
2022-10-07T03:48:48.049Z,89.80
2022-10-07T03:51:17.347Z,89.56
2022-10-07T03:53:45.094Z,89.19
2022-10-07T03:56:12.926Z,89.82
2022-10-07T03:58:40.704Z,89.76
2022-10-07T04:01:09.181Z,89.24
2022-10-07T04:03:37.106Z,89.67
2022-10-07T04:06:05.023Z,89.34
2022-10-07T04:08:34.518Z,89.52
2022-10-07T04:11:02.985Z,89.90
2022-10-07T04:13:31.676Z,90.00
2022-10-07T04:15:59.675Z,89.79
2022-10-07T04:18:27.488Z,90.42
2022-10-07T04:20:55.836Z,90.50
2022-10-07T04:23:23.806Z,91.25
2022-10-07T04:25:53.491Z,91.05
2022-10-07T04:28:22.508Z,91.24
2022-10-07T04:30:51.455Z,91.08
2022-10-07T04:33:19.861Z,91.37
2022-10-07T04:35:48.625Z,91.09
2022-10-07T04:38:17.946Z,91.59
2022-10-07T04:40:49.090Z,91.28
2022-10-07T04:43:23.382Z,91.32
2022-10-07T04:45:53.006Z,91.66
2022-10-07T04:48:21.831Z,92.29
2022-10-07T04:50:51.791Z,92.25
2022-10-07T04:53:19.879Z,92.06
2022-10-07T04:55:48.826Z,91.89
2022-10-07T04:58:19.084Z,91.47
2022-10-07T05:00:48.346Z,91.49
2022-10-07T05:03:16.991Z,91.65
2022-10-07T05:05:45.880Z,91.15
2022-10-07T05:08:15.791Z,91.05
2022-10-07T05:10:43.821Z,90.92
2022-10-07T05:13:13.094Z,91.02
2022-10-07T05:15:49.752Z,91.86
2022-10-07T05:18:18.599Z,91.54
2022-10-07T05:20:47.549Z,92.11
2022-10-07T05:23:16.067Z,91.84
2022-10-07T05:25:44.600Z,91.77
2022-10-07T05:28:12.741Z,91.23
2022-10-07T05:30:41.001Z,91.40
2022-10-07T05:33:10.756Z,91.41
2022-10-07T05:35:38.563Z,91.61
2022-10-07T05:38:06.780Z,91.53
2022-10-07T05:40:34.598Z,91.94
2022-10-07T05:43:02.542Z,91.86
2022-10-07T05:45:31.932Z,91.63
2022-10-07T05:48:00.532Z,91.69
2022-10-07T05:50:29.677Z,91.60
2022-10-07T05:52:57.569Z,91.74
2022-10-07T05:55:25.565Z,91.41
2022-10-07T05:57:53.312Z,91.76
2022-10-07T06:00:21.087Z,91.93
2022-10-07T06:02:48.975Z,91.34
2022-10-07T06:05:18.858Z,90.83
2022-10-07T06:07:48.532Z,90.61
2022-10-07T06:10:33.789Z,90.98
2022-10-07T06:13:10.550Z,90.35
2022-10-07T06:15:38.500Z,89.50
2022-10-07T06:18:06.344Z,89.17
2022-10-07T06:20:34.962Z,88.65
2022-10-07T06:23:04.944Z,87.56
2022-10-07T06:25:33.298Z,86.66
2022-10-07T06:28:01.791Z,84.56
2022-10-07T06:30:29.988Z,84.10
2022-10-07T06:32:57.842Z,83.19
2022-10-07T06:35:25.608Z,77.52
2022-10-07T06:37:53.382Z,71.56
2022-10-07T06:40:22.726Z,65.18
2022-10-07T06:42:50.511Z,64.62
2022-10-07T06:45:18.307Z,58.64
2022-10-07T06:47:46.473Z,56.72
2022-10-07T06:50:14.668Z,50.72
2022-10-07T06:52:43.590Z,51.21
2022-10-07T06:55:11.531Z,46.99
2022-10-07T06:57:45.750Z,42.96
2022-10-07T07:00:15.151Z,43.83
2022-10-07T07:02:43.395Z,41.87
2022-10-07T07:05:14.886Z,42.84
2022-10-07T07:07:42.987Z,41.72
2022-10-07T07:10:11.063Z,40.85
2022-10-07T07:12:39.029Z,39.93
2022-10-07T07:15:08.971Z,40.37
2022-10-07T07:17:36.787Z,37.97
2022-10-07T07:20:04.981Z,39.25
2022-10-07T07:22:32.813Z,39.59
2022-10-07T07:25:00.842Z,36.92
2022-10-07T07:27:28.753Z,36.69
2022-10-07T07:29:57.604Z,35.76
2022-10-07T07:32:27.368Z,37.71
2022-10-07T07:34:55.680Z,37.08
2022-10-07T07:37:24.696Z,36.34
2022-10-07T07:39:52.583Z,37.31
2022-10-07T07:42:21.787Z,36.87
2022-10-07T07:44:49.984Z,37.68
2022-10-07T07:47:17.837Z,36.57
2022-10-07T07:49:47.454Z,35.26
2022-10-07T07:52:16.671Z,31.17
2022-10-07T07:54:44.443Z,32.84
2022-10-07T07:57:12.570Z,30.87
2022-10-07T07:59:40.466Z,31.26
2022-10-07T08:02:08.482Z,30.43
2022-10-07T08:04:36.762Z,29.19
2022-10-07T08:07:05.895Z,27.98
2022-10-07T08:09:33.679Z,29.37
2022-10-07T08:12:02.135Z,27.21
2022-10-07T08:14:31.090Z,27.16
2022-10-07T08:16:59.707Z,27.83
2022-10-07T08:19:29.563Z,29.46
2022-10-07T08:21:57.924Z,30.43
2022-10-07T08:24:27.776Z,31.64
2022-10-07T08:26:55.933Z,32.89
2022-10-07T08:29:23.954Z,34.24
2022-10-07T08:31:52.246Z,33.01
2022-10-07T08:34:20.041Z,34.17
2022-10-07T08:36:49.106Z,35.95
2022-10-07T08:39:17.131Z,37.31
2022-10-07T08:41:58.276Z,34.85
2022-10-07T08:44:29.112Z,31.58
2022-10-07T08:47:03.121Z,29.17
2022-10-07T08:49:37.199Z,30.30
2022-10-07T08:52:11.590Z,30.63
2022-10-07T08:54:40.374Z,29.09
2022-10-07T08:57:15.463Z,28.71
2022-10-07T08:59:47.754Z,27.34
2022-10-07T09:02:22.022Z,25.60
2022-10-07T09:04:54.820Z,28.95
2022-10-07T09:07:29.962Z,28.57
2022-10-07T09:10:01.318Z,27.61
2022-10-07T09:12:35.722Z,26.20
2022-10-07T09:15:05.322Z,25.81
2022-10-07T09:17:38.165Z,25.08
2022-10-07T09:20:10.051Z,27.74
2022-10-07T09:22:39.913Z,27.92
2022-10-07T09:25:19.086Z,29.88
2022-10-07T09:27:49.008Z,27.57
2022-10-07T09:30:17.642Z,26.70
2022-10-07T09:32:46.868Z,27.08
2022-10-07T09:35:15.893Z,23.88
2022-10-07T09:37:58.149Z,25.52
2022-10-07T09:40:34.267Z,23.98
2022-10-07T09:43:11.033Z,25.63
2022-10-07T09:45:39.946Z,23.50
2022-10-07T09:48:17.831Z,22.99
2022-10-07T09:50:46.701Z,22.63
2022-10-07T09:53:18.600Z,24.36
2022-10-07T09:55:46.794Z,24.60
2022-10-07T09:58:20.587Z,25.56
2022-10-07T10:00:49.811Z,25.42
2022-10-07T10:03:18.337Z,24.05
2022-10-07T10:05:53.944Z,23.56
2022-10-07T10:08:26.834Z,22.03
2022-10-07T10:10:55.602Z,19.86
2022-10-07T10:13:28.070Z,18.28
2022-10-07T10:15:56.430Z,18.51
2022-10-07T10:18:32.121Z,22.58
2022-10-07T10:21:15.790Z,25.38
2022-10-07T10:23:46.876Z,26.88
2022-10-07T10:26:32.769Z,23.28
2022-10-07T10:29:12.415Z,24.03
2022-10-07T10:31:52.259Z,23.40
2022-10-07T10:34:25.533Z,22.49
2022-10-07T10:36:55.844Z,24.25
2022-10-07T10:39:29.204Z,22.86
2022-10-07T10:41:58.985Z,23.45
2022-10-07T10:44:40.495Z,22.82
2022-10-07T10:47:14.721Z,21.97
2022-10-07T10:49:46.110Z,21.43
2022-10-07T10:52:30.971Z,19.91
2022-10-07T10:55:11.416Z,18.62
2022-10-07T10:57:44.250Z,17.64
2022-10-07T11:00:15.953Z,18.39
2022-10-07T11:03:00.333Z,18.31
2022-10-07T11:05:31.978Z,18.65
2022-10-07T11:08:02.234Z,23.44
2022-10-07T11:10:32.904Z,23.36
2022-10-07T11:13:02.992Z,26.12
2022-10-07T11:15:33.608Z,23.73
2022-10-07T11:18:02.532Z,22.64
2022-10-07T11:20:33.570Z,23.96
2022-10-07T11:23:04.101Z,23.91
2022-10-07T11:25:35.187Z,23.66
2022-10-07T11:28:09.305Z,22.46
2022-10-07T11:30:43.936Z,21.77
2022-10-07T11:33:15.922Z,20.25
2022-10-07T11:35:48.360Z,22.92
2022-10-07T11:38:18.394Z,22.83
2022-10-07T11:40:49.307Z,21.11
2022-10-07T11:43:19.418Z,23.20
2022-10-07T11:45:51.965Z,22.63
2022-10-07T11:48:22.612Z,21.45
2022-10-07T11:50:54.391Z,19.79
2022-10-07T11:53:24.026Z,19.51
2022-10-07T11:55:57.209Z,19.61
2022-10-07T11:58:26.786Z,18.12
2022-10-07T12:01:09.459Z,19.05
2022-10-07T12:03:48.515Z,18.22
2022-10-07T12:06:16.609Z,17.09
2022-10-07T12:08:45.272Z,17.01
2022-10-07T12:11:43.769Z,19.75
2022-10-07T12:14:31.115Z,21.81
2022-10-07T12:16:59.122Z,25.04
2022-10-07T12:19:28.564Z,23.55
2022-10-07T12:22:15.384Z,25.68
2022-10-07T12:24:45.808Z,25.24
2022-10-07T12:27:17.663Z,28.20
2022-10-07T12:29:50.759Z,25.97
2022-10-07T12:32:37.515Z,23.92
2022-10-07T12:35:20.973Z,22.14
2022-10-07T12:37:51.688Z,20.98
2022-10-07T12:40:25.828Z,20.62
2022-10-07T12:42:59.780Z,22.67
2022-10-07T12:45:28.452Z,23.93
2022-10-07T12:47:58.426Z,24.66
2022-10-07T12:50:26.695Z,24.10
2022-10-07T12:52:58.677Z,25.53
2022-10-07T12:55:29.820Z,24.23
2022-10-07T12:58:19.293Z,23.72
2022-10-07T13:00:52.494Z,23.30
2022-10-07T13:03:36.075Z,25.99
2022-10-07T13:06:29.953Z,24.61
2022-10-07T13:09:13.637Z,26.10
2022-10-07T13:11:50.390Z,26.88
2022-10-07T13:14:22.806Z,25.09
2022-10-07T13:16:56.042Z,25.89
2022-10-07T13:19:27.744Z,29.68
2022-10-07T13:22:00.033Z,26.71
2022-10-07T13:24:29.865Z,29.02
2022-10-07T13:27:09.424Z,31.28
2022-10-07T13:29:38.495Z,30.89
2022-10-07T13:32:07.539Z,29.18
2022-10-07T13:34:35.496Z,29.22
2022-10-07T13:37:03.315Z,29.93
2022-10-07T13:39:32.585Z,30.44
2022-10-07T13:42:01.357Z,26.67
2022-10-07T13:44:30.977Z,27.91
2022-10-07T13:47:01.305Z,26.38
2022-10-07T13:49:31.428Z,26.10
2022-10-07T13:52:01.514Z,25.51
2022-10-07T13:54:31.362Z,26.96
2022-10-07T13:57:00.979Z,29.55
2022-10-07T13:59:29.375Z,29.52
2022-10-07T14:01:58.582Z,29.66
2022-10-07T14:04:27.200Z,30.09
2022-10-07T14:06:59.886Z,30.31
2022-10-07T14:09:36.374Z,30.01
2022-10-07T14:12:07.768Z,29.23
2022-10-07T14:14:37.949Z,29.22
2022-10-07T14:17:10.492Z,28.55
2022-10-07T14:19:39.409Z,29.18
2022-10-07T14:22:17.284Z,29.59
2022-10-07T14:24:52.743Z,29.52
2022-10-07T14:27:47.986Z,33.39
2022-10-07T14:30:55.498Z,35.95
2022-10-07T14:33:43.965Z,36.79
2022-10-07T14:36:13.020Z,36.94
2022-10-07T14:38:42.083Z,38.28
2022-10-07T14:41:10.023Z,38.51
2022-10-07T14:43:39.176Z,38.84
2022-10-07T14:46:12.285Z,40.02
2022-10-07T14:48:40.281Z,39.96
2022-10-07T14:51:08.111Z,40.29
2022-10-07T14:53:37.402Z,41.11
2022-10-07T14:56:05.248Z,41.55
2022-10-07T14:58:33.241Z,41.88
2022-10-07T15:01:01.174Z,40.88
2022-10-07T15:03:30.813Z,41.71
2022-10-07T15:05:58.573Z,41.56
2022-10-07T15:08:26.387Z,42.25
2022-10-07T15:10:54.195Z,41.82
2022-10-07T15:13:22.197Z,42.42
2022-10-07T15:15:50.855Z,42.43
2022-10-07T15:18:18.645Z,42.96
2022-10-07T15:20:55.086Z,43.92
2022-10-07T15:23:23.115Z,44.42
2022-10-07T15:25:52.485Z,44.79
2022-10-07T15:28:20.347Z,44.66
2022-10-07T15:30:48.178Z,44.70
2022-10-07T15:33:16.037Z,45.21
2022-10-07T15:35:44.729Z,45.70
2022-10-07T15:38:13.910Z,45.68
2022-10-07T15:40:54.708Z,45.62
2022-10-07T15:43:22.873Z,45.91
2022-10-07T15:45:51.279Z,46.24
2022-10-07T15:48:23.078Z,46.14
2022-10-07T15:50:52.072Z,46.73
2022-10-07T15:53:21.982Z,47.35
2022-10-07T15:55:50.691Z,47.71
2022-10-07T15:58:18.947Z,48.04
2022-10-07T16:00:57.061Z,48.53
2022-10-07T16:03:25.256Z,48.52
2022-10-07T16:05:56.785Z,48.31
2022-10-07T16:08:26.086Z,49.03
2022-10-07T16:10:53.958Z,48.92
2022-10-07T16:13:23.072Z,49.21
2022-10-07T16:15:58.624Z,49.79
2022-10-07T16:18:26.633Z,50.20
2022-10-07T16:20:54.423Z,50.88
2022-10-07T16:23:22.386Z,51.09
2022-10-07T16:25:51.504Z,50.81
2022-10-07T16:28:37.195Z,51.37
2022-10-07T16:31:05.409Z,51.66
2022-10-07T16:33:33.362Z,51.68
2022-10-07T16:36:01.169Z,52.30
2022-10-07T16:38:28.938Z,52.70
2022-10-07T16:40:58.058Z,53.06
2022-10-07T16:43:25.836Z,53.83
2022-10-07T16:45:53.848Z,54.90
2022-10-07T16:48:21.645Z,55.61
2022-10-07T16:50:49.569Z,56.13
2022-10-07T16:53:17.345Z,56.39
2022-10-07T16:55:45.151Z,57.08
2022-10-07T16:58:14.425Z,57.13
2022-10-07T17:00:42.211Z,57.58
2022-10-07T17:03:10.111Z,57.41
2022-10-07T17:05:39.144Z,57.41
2022-10-07T17:08:06.942Z,57.70
2022-10-07T17:10:34.873Z,57.98
2022-10-07T17:13:04.049Z,58.48
2022-10-07T17:15:33.240Z,58.78
2022-10-07T17:18:01.006Z,59.41
2022-10-07T17:20:29.034Z,59.23
2022-10-07T17:22:56.948Z,59.33
2022-10-07T17:25:24.718Z,59.78
2022-10-07T17:27:53.078Z,59.81
2022-10-07T17:30:20.888Z,59.63
2022-10-07T17:32:51.712Z,59.85
2022-10-07T17:35:19.798Z,60.23
2022-10-07T17:37:49.073Z,60.68
2022-10-07T17:40:16.950Z,60.94
2022-10-07T17:42:45.425Z,60.89
2022-10-07T17:45:13.630Z,60.69
2022-10-07T17:47:41.586Z,60.83
2022-10-07T17:50:12.076Z,61.83
2022-10-07T17:52:40.063Z,62.19
2022-10-07T17:55:08.413Z,62.55
2022-10-07T17:57:36.217Z,64.28
2022-10-07T18:00:06.097Z,65.75
2022-10-07T18:02:34.007Z,66.80
2022-10-07T18:05:02.062Z,65.00
2022-10-07T18:07:31.337Z,65.39
2022-10-07T18:09:59.168Z,66.56
2022-10-07T18:12:44.566Z,67.85
2022-10-07T18:15:21.987Z,68.58
2022-10-07T18:17:51.358Z,69.46
2022-10-07T18:20:19.733Z,69.55
2022-10-07T18:22:48.861Z,70.29
2022-10-07T18:25:16.698Z,70.39
2022-10-07T18:27:44.779Z,70.73
2022-10-07T18:30:13.202Z,70.91
2022-10-07T18:32:41.073Z,71.61
2022-10-07T18:35:12.046Z,72.27
2022-10-07T18:37:39.875Z,72.86
2022-10-07T18:40:09.814Z,73.34
2022-10-07T18:42:38.568Z,73.53
2022-10-07T18:45:06.663Z,73.42
2022-10-07T18:47:34.526Z,74.03
2022-10-07T18:50:02.497Z,74.22
2022-10-07T18:52:30.362Z,74.34
2022-10-07T18:55:00.941Z,75.03
2022-10-07T18:57:30.096Z,75.31
2022-10-07T18:59:57.889Z,76.10
2022-10-07T19:02:25.722Z,76.06
2022-10-07T19:04:59.702Z,76.51
2022-10-07T19:07:28.871Z,76.89
2022-10-07T19:09:56.687Z,77.22
2022-10-07T19:12:41.855Z,77.73
2022-10-07T19:15:11.579Z,78.26
2022-10-07T19:17:39.333Z,77.89
2022-10-07T19:20:07.560Z,78.32
2022-10-07T19:22:35.356Z,79.32
2022-10-07T19:25:20.774Z,79.06
2022-10-07T19:27:49.210Z,78.68
2022-10-07T19:30:18.733Z,78.64
2022-10-07T19:32:46.521Z,78.29
2022-10-07T19:35:14.456Z,78.62
2022-10-07T19:37:42.429Z,79.09
2022-10-07T19:40:11.231Z,79.57
2022-10-07T19:42:39.054Z,79.90
2022-10-07T19:45:09.135Z,80.22
2022-10-07T19:47:38.291Z,80.53
2022-10-07T19:50:06.543Z,80.88
2022-10-07T19:52:35.294Z,81.43
2022-10-07T19:55:03.041Z,82.01
2022-10-07T19:57:31.372Z,81.70
2022-10-07T19:59:59.189Z,82.07
2022-10-07T20:02:27.031Z,82.73
2022-10-07T20:04:57.252Z,82.89
2022-10-07T20:07:25.163Z,83.16
2022-10-07T20:09:52.954Z,83.33
2022-10-07T20:12:23.225Z,83.62
2022-10-07T20:14:51.166Z,83.17
2022-10-07T20:17:20.236Z,83.72
2022-10-07T20:19:48.176Z,83.59
2022-10-07T20:22:17.298Z,83.59
2022-10-07T20:24:45.118Z,83.53
2022-10-07T20:27:12.943Z,83.98
2022-10-07T20:29:57.031Z,84.00
2022-10-07T20:32:25.018Z,84.69
2022-10-07T20:34:52.884Z,84.37
2022-10-07T20:37:22.027Z,84.15
2022-10-07T20:40:07.094Z,84.54
2022-10-07T20:42:35.120Z,84.37
2022-10-07T20:45:03.426Z,85.14
2022-10-07T20:47:32.444Z,84.74
2022-10-07T20:50:02.396Z,85.25
2022-10-07T20:52:32.419Z,85.46
2022-10-07T20:55:00.463Z,86.01
2022-10-07T20:57:33.169Z,85.84
2022-10-07T21:00:01.166Z,86.15
2022-10-07T21:02:29.159Z,86.00
2022-10-07T21:04:59.048Z,86.06
2022-10-07T21:07:26.892Z,86.04
2022-10-07T21:09:58.056Z,86.41
2022-10-07T21:12:26.205Z,86.19
2022-10-07T21:14:55.126Z,86.85
2022-10-07T21:17:26.023Z,86.79
2022-10-07T21:19:55.095Z,86.53
2022-10-07T21:22:22.862Z,87.32
2022-10-07T21:24:50.932Z,86.96
2022-10-07T21:27:20.126Z,87.30
2022-10-07T21:29:48.847Z,87.59
2022-10-07T21:32:16.677Z,87.69
2022-10-07T21:34:44.574Z,87.64
2022-10-07T21:37:12.401Z,87.73
2022-10-07T21:39:40.199Z,88.15
2022-10-07T21:42:08.114Z,87.46
2022-10-07T21:44:37.283Z,88.04
2022-10-07T21:47:05.232Z,88.12
2022-10-07T21:49:33.070Z,88.34
2022-10-07T21:52:00.836Z,88.17
2022-10-07T21:54:30.188Z,88.67
2022-10-07T21:56:57.996Z,88.81
2022-10-07T21:59:25.873Z,88.17
2022-10-07T22:01:55.240Z,88.60
2022-10-07T22:04:24.331Z,88.95
2022-10-07T22:07:09.590Z,88.81
2022-10-07T22:09:38.453Z,88.89
2022-10-07T22:12:06.417Z,89.00
2022-10-07T22:14:34.207Z,89.17
2022-10-07T22:17:03.755Z,89.06
2022-10-07T22:19:31.632Z,89.89
2022-10-07T22:21:59.590Z,89.74
2022-10-07T22:24:27.385Z,89.66
2022-10-07T22:26:55.729Z,89.24
2022-10-07T22:29:23.613Z,88.92
2022-10-07T22:31:51.453Z,89.64
2022-10-07T22:34:38.325Z,89.08
2022-10-07T22:37:06.263Z,89.44
2022-10-07T22:39:34.194Z,88.95
2022-10-07T22:42:02.261Z,88.80
2022-10-07T22:44:31.540Z,88.49
2022-10-07T22:47:00.182Z,88.31
2022-10-07T22:49:30.371Z,88.89
2022-10-07T22:51:59.673Z,89.21
2022-10-07T22:54:28.197Z,88.74
2022-10-07T22:56:55.997Z,88.67
2022-10-07T22:59:23.816Z,89.19
2022-10-07T23:01:51.755Z,89.01
2022-10-07T23:04:21.321Z,89.09
2022-10-07T23:06:50.762Z,89.59
2022-10-07T23:09:18.583Z,89.22
2022-10-07T23:11:46.691Z,89.19
2022-10-07T23:14:14.705Z,89.10
2022-10-07T23:16:44.135Z,89.21
2022-10-07T23:19:11.948Z,89.25
2022-10-07T23:21:39.724Z,89.43
2022-10-07T23:24:09.919Z,88.84
2022-10-07T23:26:38.669Z,88.60
2022-10-07T23:29:07.426Z,87.91
2022-10-07T23:31:35.295Z,87.61
2022-10-07T23:34:03.289Z,87.03
2022-10-07T23:36:31.352Z,86.16
2022-10-07T23:38:59.964Z,85.67
2022-10-07T23:41:29.798Z,85.61
2022-10-07T23:43:58.470Z,84.98
2022-10-07T23:46:27.124Z,84.94
2022-10-07T23:48:55.828Z,84.34
2022-10-07T23:51:24.858Z,84.12
2022-10-07T23:53:52.826Z,84.09
2022-10-07T23:56:20.651Z,84.61
2022-10-07T23:58:49.790Z,84.50
